Triumph, Illinois
Current Conditions -  °F | °C
As of 11:15 PM on Tuesday 25 Nov 2014 (Local Time) from KVYS Reporting Station
Clear Clear  
Wind Chill: 11°   Ceiling: Unl
Heat Index: 20°   Visibility: 10mi
Dew Point: 18°   Wind: 7mph
Humidity: 92%   Direction: 140°SE
Pressure: 30.19"   Gusts: NA
Location:  41.5°N, 89.02°W
Report Text: KVYS 260515Z AUTO 14006KT 10SM CLR M07/M08 A3019 RMK AO2 T10661077
Loading
Personal Weather Stations






























Interactive Weather Map New forecast layout! Learn more

10-Day Weather Forecast

Advertisements
Track Severe Weather on mobile